Time;durP1;ratioP1;P1;durP2;ratioP2;P2;SDS_P1;SDS_P2;PMS_P1;PMS_P2;Temp;Humidity;BMP_temperature;BMP_pressure;BME280_temperature;BME280_humidity;BME280_pressure;Samples;Min_cycle;Max_cycle;Signal;HPM_P1;HPM_P2
2021/04/26 00:00:40;;;;;;;3.43;2.50;;;-0.50;99.90;;;0.32;100.00;101080.06;4907972;28;100133;-60
2021/04/26 00:07:23;;;;;;;6.07;3.70;;;-0.50;99.90;;;0.07;100.00;101070.75;4925427;28;100316;-60
2021/04/26 00:14:21;;;;;;;6.73;4.00;;;-0.70;99.90;;;0.01;100.00;101066.63;4938700;28;100259;-59
2021/04/26 00:17:34;;;;;;;5.77;4.27;;;-0.70;99.90;;;-0.06;100.00;101070.50;4927347;28;100729;-61
2021/04/26 00:20:47;;;;;;;7.80;4.50;;;-0.80;99.90;;;-0.11;100.00;101070.69;4945329;28;100710;-61
2021/04/26 00:23:58;;;;;;;5.23;4.47;;;-0.80;99.90;;;-0.19;100.00;101061.47;4946809;28;100176;-59
2021/04/26 00:27:09;;;;;;;7.40;3.87;;;-0.90;99.90;;;-0.20;100.00;101057.97;4945222;28;100276;-60
2021/04/26 00:30:22;;;;;;;7.13;4.07;;;-1.00;99.90;;;-0.24;100.00;101066.06;4951248;28;100191;-60
2021/04/26 00:33:35;;;;;;;7.30;4.77;;;-1.10;99.90;;;-0.31;100.00;101062.03;4944758;28;100490;-60
2021/04/26 00:36:46;;;;;;;9.93;4.10;;;-1.20;99.90;;;-0.25;100.00;101059.97;4946808;28;100154;-60
2021/04/26 00:39:57;;;;;;;6.43;3.97;;;-1.20;99.90;;;-0.11;100.00;101061.94;4940276;28;100230;-61
2021/04/26 00:43:09;;;;;;;7.17;4.20;;;-1.30;99.90;;;0.05;100.00;101054.19;4945349;28;101277;-61
2021/04/26 00:46:20;;;;;;;7.17;3.63;;;-1.30;99.90;;;-0.17;100.00;101057.84;4928149;28;102666;-60
2021/04/26 00:49:32;;;;;;;3.80;3.20;;;-1.30;99.90;;;-0.13;100.00;101048.88;4945142;28;100418;-60
2021/04/26 00:52:44;;;;;;;4.40;3.43;;;-1.30;99.90;;;0.00;100.00;101057.88;4930603;28;100119;-61
2021/04/26 00:55:58;;;;;;;5.60;3.00;;;-1.30;99.90;;;-0.13;100.00;101046.25;4925980;28;100508;-61
2021/04/26 00:59:11;;;;;;;6.07;3.23;;;-1.30;99.90;;;-0.10;100.00;101045.25;4926598;28;100076;-60
2021/04/26 01:02:24;;;;;;;3.00;2.70;;;-1.30;99.90;;;-0.13;100.00;101050.66;4924113;28;100231;-62
2021/04/26 01:05:40;;;;;;;4.00;3.10;;;-1.30;99.90;;;-0.43;100.00;101048.50;4934124;28;100378;-60
2021/04/26 01:08:52;;;;;;;4.30;3.07;;;-1.30;99.90;;;-0.36;100.00;101046.44;4945445;28;100509;-60
2021/04/26 01:12:41;;;;;;;3.80;2.90;;;-1.30;99.90;;;-0.59;100.00;101052.75;4939082;28;100488;-60
2021/04/26 01:16:00;;;;;;;3.83;2.63;;;-1.40;99.90;;;-0.33;100.00;101042.81;4946297;28;100017;-60
2021/04/26 01:19:19;;;;;;;3.40;2.47;;;-1.50;99.90;;;-0.78;100.00;101044.84;4947577;28;100236;-60
2021/04/26 01:22:49;;;;;;;4.13;2.60;;;-1.50;99.90;;;-0.85;100.00;101053.06;4927373;28;100829;-60
2021/04/26 01:29:46;;;;;;;3.23;2.67;;;-1.70;99.90;;;-0.97;100.00;101048.34;4935656;28;100297;-61
2021/04/26 01:33:03;;;;;;;3.73;2.50;;;-1.80;99.90;;;-0.83;100.00;101054.69;4945270;28;100089;-59
2021/04/26 01:36:24;;;;;;;4.37;2.23;;;-1.90;99.90;;;-0.87;100.00;101054.91;4926584;28;103012;-60
2021/04/26 01:39:37;;;;;;;4.80;2.43;;;-1.90;99.90;;;-0.86;100.00;101053.97;4926845;28;102290;-60
2021/04/26 01:42:51;;;;;;;2.90;2.20;;;-2.00;99.90;;;-0.84;100.00;101055.63;4944969;28;100244;-59
2021/04/26 01:46:04;;;;;;;4.13;2.23;;;-2.00;99.90;;;-0.84;100.00;101046.88;4926614;28;100295;-59
2021/04/26 01:49:41;;;;;;;3.27;2.50;;;-2.00;99.90;;;-1.02;100.00;101045.94;4926551;28;103285;-60
2021/04/26 01:53:08;;;;;;;3.37;2.33;;;-2.00;99.90;;;-0.95;100.00;101044.72;4903126;28;102060;-59
2021/04/26 01:56:24;;;;;;;2.73;2.33;;;-2.00;99.90;;;-0.87;100.00;101049.66;4933654;28;100105;-60
2021/04/26 01:59:46;;;;;;;3.20;2.60;;;-2.10;99.90;;;-0.61;100.00;101049.34;4927665;28;100061;-59
2021/04/26 02:03:07;;;;;;;4.57;2.63;;;-2.10;99.90;;;-0.81;100.00;101059.88;4926137;28;103247;-60
2021/04/26 02:06:31;;;;;;;5.57;2.83;;;-2.10;99.90;;;-0.73;100.00;101061.25;4944448;28;101100;-61
2021/04/26 02:09:58;;;;;;;2.90;2.07;;;-2.10;99.90;;;-0.89;100.00;101054.97;4907202;28;100452;-59
2021/04/26 02:13:09;;;;;;;4.20;2.20;;;-2.10;99.90;;;-0.71;100.00;101063.81;4944882;28;100394;-60
2021/04/26 02:16:23;;;;;;;2.53;2.03;;;-2.00;99.90;;;-0.61;100.00;101053.75;4925794;28;101123;-60
2021/04/26 02:19:34;;;;;;;5.53;2.10;;;-2.00;99.90;;;-1.00;100.00;101044.09;4926201;28;102871;-60
2021/04/26 02:22:47;;;;;;;2.10;1.90;;;-2.00;99.90;;;-0.90;100.00;101041.91;4926064;28;100683;-60
2021/04/26 02:25:59;;;;;;;4.43;1.93;;;-2.10;99.90;;;-0.94;100.00;101045.56;4945649;28;100221;-60
2021/04/26 02:29:22;;;;;;;2.43;1.70;;;-2.10;99.90;;;-1.07;100.00;101042.63;4944190;28;101164;-62
2021/04/26 02:36:35;;;;;;;3.13;2.37;;;-2.20;99.90;;;-1.09;100.00;101045.31;4912149;28;100631;-60
2021/04/26 02:39:50;;;;;;;2.73;2.27;;;-2.20;99.90;;;-1.14;100.00;101044.69;4926443;28;100410;-59
2021/04/26 02:46:34;;;;;;;3.83;2.30;;;-2.30;99.90;;;-1.25;100.00;101046.06;4918437;28;100266;-58
2021/04/26 02:49:47;;;;;;;3.10;2.07;;;-2.40;99.90;;;-1.27;100.00;101037.38;4926138;28;100107;-66
2021/04/26 02:53:20;;;;;;;4.53;2.60;;;-2.40;99.90;;;-1.24;100.00;101030.25;4925806;28;100411;-60
2021/04/26 02:56:36;;;;;;;2.43;2.00;;;-2.40;99.90;;;-1.01;100.00;101031.88;4922743;28;103116;-60
2021/04/26 02:59:48;;;;;;;4.07;2.87;;;-2.50;99.90;;;-1.24;100.00;101029.38;4930006;28;102467;-61
2021/04/26 03:03:01;;;;;;;3.70;2.90;;;-2.50;99.90;;;-1.39;100.00;101032.66;4929402;28;100272;-61
2021/04/26 03:06:14;;;;;;;4.77;2.43;;;-2.50;99.90;;;-1.40;100.00;101025.69;4928872;28;100576;-61
2021/04/26 03:09:45;;;;;;;3.53;2.10;;;-2.50;99.90;;;-1.40;100.00;101030.94;4941148;28;101130;-60
2021/04/26 03:13:00;;;;;;;3.40;2.23;;;-2.60;99.90;;;-1.50;100.00;101031.34;4928694;28;102254;-59
2021/04/26 03:16:14;;;;;;;2.90;2.03;;;-2.60;99.90;;;-1.41;100.00;101032.72;4929623;28;100397;-62
2021/04/26 03:19:26;;;;;;;3.00;2.03;;;-2.60;99.90;;;-1.70;100.00;101033.91;4946475;28;100304;-59
2021/04/26 03:22:38;;;;;;;3.40;2.00;;;-2.60;99.90;;;-1.87;100.00;101029.34;4927849;28;100833;-58
2021/04/26 03:29:25;;;;;;;4.47;2.40;;;-2.70;99.90;;;-1.85;100.00;101018.78;4909954;28;100088;-60
2021/04/26 03:32:48;;;;;;;6.00;2.80;;;-2.80;99.90;;;-1.87;100.00;101015.38;4947034;28;100366;-60
2021/04/26 03:36:07;;;;;;;5.93;2.60;;;-2.90;99.90;;;-1.93;100.00;101018.25;4942867;28;102871;-58
2021/04/26 03:39:19;;;;;;;3.00;1.93;;;-2.90;99.90;;;-1.74;100.00;101013.13;4922739;28;102591;-60
2021/04/26 03:42:33;;;;;;;3.20;2.40;;;-3.00;99.90;;;-1.51;100.00;101016.50;4947189;28;100175;-59
2021/04/26 03:45:47;;;;;;;3.43;2.50;;;-3.00;99.90;;;-1.40;100.00;101012.56;4927811;28;100259;-59
2021/04/26 03:49:17;;;;;;;3.50;2.67;;;-3.00;99.90;;;-1.20;100.00;101015.19;4942313;28;100957;-61
2021/04/26 03:56:24;;;;;;;4.23;3.40;;;-2.90;99.90;;;-1.44;100.00;101009.22;4945185;28;100294;-60
2021/04/26 03:59:36;;;;;;;2.97;2.60;;;-2.90;99.90;;;-1.30;100.00;101008.63;4928267;28;100487;-61
2021/04/26 04:02:49;;;;;;;5.63;2.57;;;-2.90;99.90;;;-1.65;100.00;101008.34;4927638;28;103267;-60
2021/04/26 04:06:06;;;;;;;3.97;2.90;;;-2.90;99.90;;;-1.65;100.00;101010.97;4911638;28;102678;-60
2021/04/26 04:09:53;;;;;;;6.07;3.27;;;-3.00;99.90;;;-1.61;100.00;101014.34;4865360;28;100594;-61
2021/04/26 04:13:04;;;;;;;5.97;3.53;;;-3.00;99.90;;;-1.67;100.00;101009.31;4864840;28;100574;-60
2021/04/26 04:16:15;;;;;;;7.13;3.20;;;-2.90;99.90;;;-1.48;100.00;101011.09;4925833;28;100900;-61
2021/04/26 04:19:28;;;;;;;8.33;3.53;;;-3.00;99.90;;;-1.05;100.00;101005.78;4904510;28;102541;-60
2021/04/26 04:22:44;;;;;;;8.73;3.67;;;-2.90;99.90;;;-1.05;100.00;101011.03;4908954;28;100196;-61
2021/04/26 04:25:56;;;;;;;6.43;3.77;;;-2.80;99.90;;;-0.69;100.00;100998.03;4908734;28;100274;-61
2021/04/26 04:29:10;;;;;;;7.03;3.13;;;-2.70;99.90;;;-0.54;100.00;101002.59;4908300;28;101497;-60
2021/04/26 04:32:34;;;;;;;8.80;4.40;;;-2.60;99.90;;;-0.39;100.00;100999.28;4925129;28;100482;-60
2021/04/26 04:36:20;;;;;;;7.00;3.33;;;-2.50;99.90;;;-0.25;100.00;101001.28;4904372;28;100234;-59
2021/04/26 04:39:41;;;;;;;6.33;3.47;;;-2.40;99.90;;;-0.14;100.00;100996.34;4920162;28;100048;-60
2021/04/26 04:43:13;;;;;;;5.73;2.97;;;-2.30;99.90;;;0.06;100.00;101003.28;4922265;28;99765;-63
2021/04/26 04:46:48;;;;;;;5.97;3.00;;;-2.20;99.90;;;0.00;100.00;100992.09;4914952;28;102080;-61
2021/04/26 04:50:10;;;;;;;3.77;3.00;;;-2.10;99.90;;;0.68;100.00;100994.91;4898088;28;100300;-60
2021/04/26 04:53:24;;;;;;;7.67;3.37;;;-1.90;99.90;;;0.35;100.00;101008.84;4903938;28;101584;-61
2021/04/26 04:56:35;;;;;;;7.27;3.00;;;-1.70;99.90;;;1.15;100.00;100995.06;4923769;28;101239;-60
2021/04/26 04:59:49;;;;;;;3.77;2.30;;;-1.50;99.90;;;1.02;100.00;101000.13;4904451;28;102382;-60
2021/04/26 05:03:15;;;;;;;6.30;3.10;;;-1.20;99.90;;;1.53;100.00;100994.78;4914343;28;100074;-60
2021/04/26 05:06:36;;;;;;;7.83;2.70;;;-1.00;99.90;;;2.02;100.00;100995.56;4920971;28;100039;-61
2021/04/26 05:10:11;;;;;;;2.50;2.20;;;-0.70;99.90;;;2.09;100.00;100984.59;4920095;28;100679;-60
2021/04/26 05:13:32;;;;;;;4.90;2.37;;;-0.40;99.90;;;1.66;100.00;100986.13;4930767;28;100246;-60
2021/04/26 05:16:43;;;;;;;4.80;2.70;;;-0.10;99.90;;;1.78;100.00;100982.81;4922994;28;100287;-60
2021/04/26 05:20:09;;;;;;;3.13;2.20;;;0.10;99.90;;;2.39;100.00;100981.94;4925423;28;100122;-59
2021/04/26 05:23:22;;;;;;;3.07;2.67;;;0.30;99.90;;;3.00;100.00;100972.16;4921444;28;101320;-60
2021/04/26 05:26:35;;;;;;;8.03;2.50;;;0.50;99.90;;;3.22;100.00;100972.53;4907255;28;101146;-59
2021/04/26 05:29:48;;;;;;;4.40;2.27;;;0.80;99.90;;;3.72;100.00;100968.53;4913438;28;100091;-60
2021/04/26 05:33:00;;;;;;;3.30;2.17;;;1.10;99.90;;;3.57;100.00;100967.72;4944835;28;100092;-59
2021/04/26 05:36:21;;;;;;;3.30;2.00;;;1.50;99.90;;;3.96;100.00;100973.09;4936590;28;97877;-60
2021/04/26 05:39:37;;;;;;;2.47;2.27;;;1.90;99.90;;;4.17;100.00;100976.16;4907643;28;99699;-59
2021/04/26 05:42:50;;;;;;;4.13;2.97;;;2.20;99.90;;;4.26;100.00;100975.53;4942131;28;98092;-59
2021/04/26 05:46:02;;;;;;;6.30;2.90;;;2.50;99.90;;;4.45;100.00;100971.69;4918864;28;99872;-59
2021/04/26 05:49:13;;;;;;;2.57;1.87;;;2.80;99.90;;;4.85;100.00;100968.03;4939749;28;98844;-59
2021/04/26 05:52:24;;;;;;;2.73;2.07;;;3.10;99.90;;;5.35;100.00;100967.16;4928398;28;98311;-60
2021/04/26 05:55:47;;;;;;;3.30;1.83;;;3.50;99.90;;;5.28;100.00;100970.38;4924480;28;100061;-60
2021/04/26 05:58:59;;;;;;;3.40;1.90;;;3.80;99.90;;;5.98;100.00;100963.53;4925519;28;99235;-60
2021/04/26 06:02:16;;;;;;;2.17;1.57;;;4.20;99.90;;;5.70;100.00;100963.78;4925203;28;99699;-60
2021/04/26 06:05:39;;;;;;;2.10;1.50;;;4.50;98.00;;;6.20;100.00;100954.81;4954470;28;101283;-60
2021/04/26 06:08:51;;;;;;;2.17;1.40;;;4.90;97.00;;;6.06;100.00;100960.28;4978885;28;95744;-60
2021/04/26 06:16:15;;;;;;;3.00;1.20;;;5.60;93.80;;;6.77;100.00;100954.06;4913043;28;99760;-61
2021/04/26 06:19:33;;;;;;;1.70;1.30;;;6.00;91.70;;;6.58;100.00;100948.41;4973604;28;93879;-60
2021/04/26 06:22:44;;;;;;;2.10;0.80;;;6.20;90.40;;;7.15;100.00;100945.75;4972511;28;99360;-60
2021/04/26 06:25:55;;;;;;;2.63;1.00;;;6.50;88.60;;;6.55;100.00;100946.88;4976264;28;96099;-59
2021/04/26 06:29:06;;;;;;;2.03;1.50;;;6.80;84.80;;;6.49;100.00;100950.81;4972867;28;98413;-61
2021/04/26 06:35:46;;;;;;;3.03;1.30;;;7.30;80.90;;;7.35;100.00;100941.53;4991935;28;80296;-60
2021/04/26 06:39:10;;;;;;;2.20;1.10;;;7.60;78.40;;;7.24;100.00;100941.53;4991684;28;81011;-61
2021/04/26 06:42:23;;;;;;;2.93;1.07;;;7.90;75.70;;;7.55;100.00;100938.09;4994162;28;86402;-60
2021/04/26 06:45:35;;;;;;;2.07;1.03;;;8.20;73.50;;;6.81;100.00;100939.53;4992573;28;87185;-60
2021/04/26 06:48:47;;;;;;;3.40;1.10;;;8.50;70.40;;;7.65;100.00;100932.91;4984303;28;96087;-61
2021/04/26 06:52:10;;;;;;;2.43;1.10;;;8.70;68.50;;;8.04;100.00;100931.44;4972603;28;95286;-60
2021/04/26 06:55:27;;;;;;;3.63;0.83;;;9.00;67.10;;;8.15;100.00;100928.78;4961543;28;93415;-61
2021/04/26 06:58:39;;;;;;;1.03;0.80;;;9.30;64.90;;;9.02;100.00;100916.06;4997215;28;79498;-61
2021/04/26 07:01:50;;;;;;;1.30;0.90;;;9.60;64.00;;;7.91;100.00;100916.47;4991070;28;68492;-61
2021/04/26 07:05:02;;;;;;;1.07;0.80;;;9.90;61.30;;;9.39;100.00;100911.88;5000035;28;81190;-61
2021/04/26 07:08:13;;;;;;;3.57;1.30;;;10.10;59.40;;;9.48;100.00;100918.22;4965943;28;94100;-59
2021/04/26 07:11:24;;;;;;;3.00;0.97;;;10.40;58.40;;;9.81;100.00;100907.19;5010986;28;69078;-60
2021/04/26 07:14:36;;;;;;;2.83;1.00;;;10.70;57.50;;;10.15;100.00;100910.31;4963305;28;89653;-61
2021/04/26 07:17:47;;;;;;;3.70;1.00;;;11.00;56.40;;;10.46;100.00;100913.72;4987806;28;86683;-61
2021/04/26 07:20:59;;;;;;;3.10;1.17;;;11.30;55.60;;;10.39;100.00;100908.09;4988127;28;86476;-59
2021/04/26 07:24:11;;;;;;;2.67;1.20;;;11.60;54.10;;;10.18;100.00;100915.41;4971572;28;82061;-61
2021/04/26 07:27:22;;;;;;;2.20;1.20;;;11.90;52.90;;;9.89;100.00;100915.34;5001151;28;76416;-62
2021/04/26 07:30:35;;;;;;;4.13;1.10;;;12.10;50.90;;;9.98;100.00;100908.34;4990814;28;92544;-61
2021/04/26 07:33:46;;;;;;;1.53;0.93;;;12.20;50.30;;;9.75;94.51;100902.41;4988684;28;86401;-60
2021/04/26 07:37:13;;;;;;;2.07;1.00;;;12.40;50.10;;;10.10;87.91;100907.22;4986269;28;87501;-61
2021/04/26 07:40:25;;;;;;;1.60;0.90;;;12.50;48.90;;;10.78;77.96;100903.53;4979433;28;81557;-60
2021/04/26 07:43:38;;;;;;;1.80;0.90;;;12.70;48.50;;;9.68;78.81;100896.75;4977581;28;82566;-61
2021/04/26 07:46:55;;;;;;;1.93;0.80;;;13.00;46.40;;;10.87;70.38;100899.16;5004412;28;53188;-61
2021/04/26 07:50:06;;;;;;;4.07;0.97;;;13.00;46.30;;;10.97;72.91;100899.97;4989582;28;79258;-61
2021/04/26 07:53:19;;;;;;;1.57;0.80;;;13.10;46.00;;;10.69;72.38;100898.19;4992299;28;65252;-62
2021/04/26 07:56:31;;;;;;;1.00;0.50;;;13.30;46.00;;;10.71;66.69;100894.41;5003828;28;63776;-60
2021/04/26 07:59:42;;;;;;;2.03;0.77;;;13.40;43.90;;;11.24;66.87;100890.28;4979875;28;85015;-61
2021/04/26 08:02:53;;;;;;;2.10;0.80;;;13.50;44.00;;;10.82;67.59;100895.22;4988454;28;84244;-60
2021/04/26 08:06:16;;;;;;;3.17;0.87;;;13.60;43.50;;;10.70;69.19;100891.88;4989765;28;84808;-61
2021/04/26 08:09:29;;;;;;;2.73;0.90;;;13.70;43.30;;;10.99;68.43;100891.78;5009165;28;66016;-60
2021/04/26 08:16:10;;;;;;;1.80;0.93;;;13.70;42.30;;;11.56;55.82;100890.69;4996172;28;77761;-61
2021/04/26 08:19:22;;;;;;;2.67;0.70;;;13.80;42.00;;;11.78;52.37;100887.59;4997767;28;76710;-61
2021/04/26 08:22:33;;;;;;;1.97;0.70;;;13.90;41.90;;;12.22;52.93;100875.13;5006823;28;72832;-61
2021/04/26 08:25:46;;;;;;;3.53;0.93;;;14.10;41.80;;;10.60;59.52;100885.69;4992296;28;59421;-60
2021/04/26 08:28:59;;;;;;;1.27;0.83;;;14.30;39.80;;;10.72;58.22;100888.06;4981930;28;90065;-60
2021/04/26 08:32:10;;;;;;;2.70;0.90;;;14.20;39.60;;;11.65;56.28;100884.41;4963048;28;92386;-61
2021/04/26 08:35:21;;;;;;;1.03;0.70;;;14.10;39.20;;;11.24;58.94;100885.78;4961418;28;99053;-60
2021/04/26 08:38:33;;;;;;;3.77;0.90;;;14.10;39.00;;;11.12;59.53;100879.75;4957662;28;92581;-59
2021/04/26 08:42:12;;;;;;;2.53;1.03;;;14.20;39.40;;;11.86;58.72;100894.91;4990469;28;84035;-61
2021/04/26 08:45:24;;;;;;;2.57;1.00;;;14.20;39.10;;;12.17;51.79;100887.31;4943596;28;59844;-60
2021/04/26 08:48:36;;;;;;;2.20;0.90;;;14.30;39.00;;;12.58;47.82;100881.31;4990839;28;65456;-60
2021/04/26 08:51:47;;;;;;;2.30;1.10;;;14.50;39.10;;;12.73;49.42;100880.72;5004858;28;81408;-61
2021/04/26 08:54:58;;;;;;;3.07;1.23;;;14.80;39.10;;;13.43;52.36;100876.94;5013425;28;57897;-60
2021/04/26 08:58:10;;;;;;;1.87;0.77;;;15.10;39.10;;;12.73;49.66;100873.53;5010345;28;54377;-61
2021/04/26 09:05:15;;;;;;;1.63;0.80;;;15.50;38.30;;;12.53;54.78;100869.34;4995298;28;66485;-61
2021/04/26 09:08:29;;;;;;;2.50;0.93;;;15.80;38.10;;;13.26;45.92;100877.84;5003942;28;53208;-61
2021/04/26 09:11:40;;;;;;;2.03;0.80;;;15.90;37.60;;;12.70;45.09;100879.19;5009838;28;59003;-61
2021/04/26 09:15:03;;;;;;;1.13;0.60;;;16.00;36.20;;;12.90;41.77;100874.44;4975727;28;60175;-59
2021/04/26 09:18:14;;;;;;;3.50;0.80;;;16.00;35.90;;;11.66;50.95;100871.84;5002321;28;65742;-62
2021/04/26 09:22:08;;;;;;;1.40;0.70;;;15.90;35.80;;;12.25;53.62;100860.56;5003478;28;59212;-61
2021/04/26 09:25:35;;;;;;;1.30;0.80;;;15.80;36.10;;;11.32;52.15;100864.44;4945157;28;65273;-60
2021/04/26 09:33:04;;;;;;;3.00;0.75;;;15.70;35.30;;;12.45;54.18;100859.38;4871403;28;78853;-61
2021/04/26 09:36:31;;;;;;;2.70;0.68;;;15.40;35.80;;;12.44;44.99;100841.59;4972077;28;62936;-60
2021/04/26 09:39:42;;;;;;;1.10;0.70;;;15.40;36.30;;;13.35;48.35;100833.91;5008636;28;72279;-61
2021/04/26 09:43:08;;;;;;;1.92;0.80;;;15.50;36.30;;;12.90;38.19;100832.31;4992602;28;87641;-61
2021/04/26 09:46:32;;;;;;;2.00;0.80;;;15.70;36.00;;;12.76;35.53;100832.91;5001036;28;79646;-60
2021/04/26 09:49:53;;;;;;;1.10;0.90;;;16.00;35.00;;;13.65;37.46;100833.31;4994728;28;98274;-60
2021/04/26 09:53:24;;;;;;;1.67;0.75;;;16.40;34.20;;;13.69;38.13;100825.75;4979072;28;97578;-61
2021/04/26 09:56:45;;;;;;;4.32;0.60;;;16.70;33.60;;;13.72;36.27;100817.38;4970318;28;94563;-60
2021/04/26 09:59:57;;;;;;;1.83;0.80;;;17.00;33.10;;;13.97;37.33;100821.72;4967408;28;91032;-61
2021/04/26 10:03:22;;;;;;;1.27;0.70;;;17.30;33.00;;;12.93;40.07;100817.72;4973861;28;88649;-61
2021/04/26 10:06:35;;;;;;;0.90;0.80;;;17.40;31.50;;;13.04;40.51;100811.22;4963728;28;91754;-60
2021/04/26 10:09:48;;;;;;;2.17;0.75;;;17.20;31.80;;;11.92;44.19;100815.66;4942719;28;100062;-60
2021/04/26 10:12:59;;;;;;;1.35;0.60;;;17.10;31.10;;;12.58;42.07;100799.91;4936233;28;99965;-58
2021/04/26 10:19:46;;;;;;;2.67;0.63;;;16.60;31.90;;;14.12;33.96;100802.22;4948852;28;90717;-60
2021/04/26 10:23:04;;;;;;;0.77;0.60;;;16.90;32.10;;;15.08;32.60;100809.31;4947169;28;98406;-61
2021/04/26 10:26:15;;;;;;;2.45;0.88;;;17.30;31.90;;;13.91;33.23;100795.53;4948044;28;95783;-62
2021/04/26 10:30:05;;;;;;;1.58;0.57;;;17.90;31.50;;;13.92;34.48;100789.13;4945207;28;99547;-61
2021/04/26 10:33:25;;;;;;;2.20;0.73;;;18.30;30.30;;;15.02;32.05;100787.59;4860849;28;99925;-62
2021/04/26 10:37:07;;;;;;;2.10;1.08;;;18.80;30.20;;;14.68;30.52;100788.75;4878076;28;97319;-61
2021/04/26 10:40:35;;;;;;;1.35;0.63;;;19.20;29.20;;;13.96;29.86;100785.09;4875986;28;99675;-62
2021/04/26 10:43:58;;;;;;;0.98;0.63;;;19.60;28.10;;;13.97;29.49;100775.19;4869566;28;100197;-62
2021/04/26 10:47:38;;;;;;;1.60;0.85;;;19.90;27.80;;;12.91;32.06;100760.63;4931962;28;99521;-60
2021/04/26 10:51:10;;;;;;;0.95;0.63;;;20.20;27.50;;;13.47;30.61;100753.78;4937840;28;100102;-62
2021/04/26 10:54:22;;;;;;;2.97;0.60;;;20.20;27.40;;;13.61;34.17;100753.13;4861289;28;100352;-61
2021/04/26 10:58:05;;;;;;;0.88;0.80;;;20.10;27.30;;;14.66;31.96;100755.75;4943497;28;99664;-62
2021/04/26 11:01:25;;;;;;;2.60;0.93;;;20.20;28.00;;;13.85;30.24;100753.13;4871512;28;99909;-60
2021/04/26 11:04:36;;;;;;;1.70;1.00;;;20.40;27.40;;;14.38;31.43;100757.97;4882037;28;96098;-62
2021/04/26 11:07:57;;;;;;;4.05;0.75;;;20.70;27.00;;;13.20;31.47;100758.44;4948711;28;99936;-59
2021/04/26 11:11:18;;;;;;;1.98;1.00;;;20.90;26.40;;;11.76;34.24;100760.06;4950069;28;99767;-61
2021/04/26 11:14:38;;;;;;;1.48;0.70;;;20.80;25.50;;;11.20;34.99;100753.13;4947129;28;99932;-60
2021/04/26 11:17:53;;;;;;;1.17;0.70;;;20.40;25.30;;;13.73;31.21;100729.44;4956661;28;99572;-62
2021/04/26 11:21:06;;;;;;;1.20;0.80;;;20.00;25.90;;;14.16;30.97;100733.63;4972869;28;88072;-62
2021/04/26 11:28:22;;;;;;;1.30;0.60;;;20.20;26.20;;;14.69;28.64;100727.63;4968831;28;89045;-60
2021/04/26 11:31:40;;;;;;;2.58;0.88;;;20.60;26.20;;;15.04;29.47;100721.75;4945842;28;95349;-62
2021/04/26 11:35:09;;;;;;;1.45;0.70;;;21.00;26.00;;;14.00;29.75;100707.56;4955821;28;96655;-62
2021/04/26 11:41:42;;;;;;;1.33;0.93;;;21.40;25.70;;;14.61;28.04;100714.19;4956084;28;95047;-62
2021/04/26 11:44:54;;;;;;;1.80;0.70;;;21.60;25.10;;;14.30;28.24;100717.63;4935198;28;99450;-61
2021/04/26 11:48:07;;;;;;;2.63;0.90;;;21.60;25.00;;;13.99;27.63;100706.72;4932843;28;99716;-62
2021/04/26 11:51:18;;;;;;;1.20;0.70;;;21.60;24.80;;;14.45;27.76;100700.78;4948318;28;99900;-61
2021/04/26 11:54:37;;;;;;;2.47;0.88;;;21.70;24.40;;;13.57;27.64;100706.94;4926870;28;100105;-61
2021/04/26 11:57:49;;;;;;;1.10;0.77;;;21.60;23.70;;;13.27;27.58;100699.47;4951714;28;97962;-62
2021/04/26 12:01:00;;;;;;;2.50;0.85;;;21.50;23.40;;;11.54;31.12;100691.66;4935183;28;99772;-60
2021/04/26 12:04:50;;;;;;;2.67;0.90;;;21.30;23.10;;;13.20;32.48;100667.06;4938418;28;100445;-62
2021/04/26 12:08:07;;;;;;;3.35;0.95;;;20.60;23.60;;;12.87;31.03;100660.75;4866693;28;99915;-61
2021/04/26 12:11:31;;;;;;;1.65;0.88;;;19.80;24.60;;;15.12;32.95;100664.25;4926612;28;99974;-61
2021/04/26 12:14:42;;;;;;;1.33;0.80;;;19.40;26.00;;;15.16;30.90;100660.19;4956766;28;88689;-61
2021/04/26 12:17:57;;;;;;;1.83;0.80;;;19.70;26.60;;;14.92;30.43;100663.88;4965493;28;93726;-61
2021/04/26 12:21:09;;;;;;;2.20;1.08;;;20.10;26.30;;;14.74;31.18;100658.75;4954364;28;94889;-60
2021/04/26 12:24:22;;;;;;;1.85;1.10;;;20.40;26.10;;;13.83;31.55;100646.75;4957619;28;97075;-61
2021/04/26 12:27:43;;;;;;;2.78;0.80;;;20.70;25.40;;;13.15;30.89;100652.44;4949945;28;95568;-61
2021/04/26 12:30:56;;;;;;;1.38;0.82;;;20.80;25.30;;;13.88;32.57;100652.44;4946181;28;97468;-61
2021/04/26 12:34:13;;;;;;;2.63;0.80;;;20.80;25.40;;;14.65;28.93;100645.50;4967747;28;92640;-60
2021/04/26 12:37:25;;;;;;;2.60;0.98;;;21.00;25.50;;;13.82;32.18;100645.06;4951660;28;96657;-60
2021/04/26 12:48:18;;;;;;;1.75;0.90;;;21.60;25.50;;;15.29;30.75;100625.41;4957785;28;97620;-61
2021/04/26 12:51:36;;;;;;;1.63;0.80;;;21.70;25.30;;;15.08;31.37;100633.31;4953693;28;96428;-61
2021/04/26 12:54:48;;;;;;;1.15;0.90;;;21.70;25.00;;;15.05;30.39;100629.09;4946917;28;99042;-61
2021/04/26 12:58:00;;;;;;;1.85;1.00;;;21.60;25.20;;;14.47;28.92;100626.88;4951926;28;97975;-61
2021/04/26 13:01:14;;;;;;;3.17;1.08;;;21.80;25.30;;;14.62;31.85;100622.44;4930131;28;99843;-61
2021/04/26 13:08:09;;;;;;;4.20;0.95;;;22.00;24.60;;;14.50;31.12;100615.78;4952625;28;98222;-62
2021/04/26 13:11:30;;;;;;;2.78;1.10;;;22.10;24.50;;;15.17;29.28;100602.56;4954976;28;85690;-63
2021/04/26 13:14:51;;;;;;;2.47;0.80;;;22.20;24.80;;;14.21;32.06;100605.63;4971414;28;79687;-62
2021/04/26 13:18:35;;;;;;;2.33;1.08;;;22.20;23.30;;;14.61;30.07;100599.22;4974416;28;86758;-62
2021/04/26 13:21:51;;;;;;;3.17;0.95;;;22.00;24.00;;;14.81;28.53;100598.78;4932511;28;91770;-61
2021/04/26 13:25:12;;;;;;;1.30;0.70;;;21.90;24.20;;;14.92;29.30;100584.91;4964281;28;95001;-62
2021/04/26 13:28:30;;;;;;;1.85;1.00;;;21.80;24.40;;;15.20;28.54;100591.44;4951997;28;97560;-61
2021/04/26 13:31:42;;;;;;;2.13;0.95;;;21.70;24.20;;;14.63;27.62;100586.41;4956213;28;99514;-62
2021/04/26 13:34:54;;;;;;;2.55;0.80;;;21.70;24.50;;;15.25;28.36;100586.31;4953524;28;98703;-61
2021/04/26 13:38:05;;;;;;;8.40;1.05;;;21.70;24.40;;;14.79;28.23;100581.97;4950126;28;99613;-61
2021/04/26 13:41:22;;;;;;;1.05;0.73;;;21.80;24.30;;;14.94;29.09;100580.19;4949139;28;98978;-61
2021/04/26 13:44:35;;;;;;;2.53;0.88;;;21.70;24.30;;;15.59;28.91;100571.56;4937808;28;99472;-61
2021/04/26 13:48:20;;;;;;;2.58;0.95;;;21.60;24.80;;;13.53;29.09;100562.25;4954339;28;97894;-62
2021/04/26 13:51:44;;;;;;;2.13;1.13;;;21.60;23.90;;;14.88;29.99;100560.16;4879003;28;96080;-61
2021/04/26 13:55:01;;;;;;;2.92;1.10;;;21.20;24.10;;;14.70;28.86;100562.31;4876202;28;92479;-60
2021/04/26 13:58:13;;;;;;;1.00;0.77;;;21.00;24.70;;;14.38;30.14;100564.13;4946754;28;99855;-61
2021/04/26 14:01:27;;;;;;;1.77;0.95;;;20.90;24.90;;;14.46;29.29;100566.00;4962674;28;93947;-61
2021/04/26 14:04:38;;;;;;;3.10;1.00;;;20.80;24.80;;;13.72;30.54;100563.72;4962273;28;97031;-62
2021/04/26 14:07:55;;;;;;;4.65;1.90;;;20.40;24.90;;;14.11;30.98;100563.75;4966841;28;92557;-61
2021/04/26 14:11:06;;;;;;;3.47;1.23;;;20.00;25.00;;;14.37;29.13;100557.06;4966134;28;84982;-62
2021/04/26 14:14:18;;;;;;;1.88;0.80;;;19.90;25.20;;;14.78;29.14;100545.25;4993959;28;63055;-62
2021/04/26 14:17:30;;;;;;;1.27;0.80;;;19.80;25.40;;;14.97;28.23;100539.38;4975937;28;67547;-62
2021/04/26 14:20:42;;;;;;;3.28;1.02;;;19.90;25.80;;;15.37;29.16;100548.97;4984364;28;80920;-63
2021/04/26 14:23:53;;;;;;;1.02;0.90;;;20.00;25.60;;;15.25;28.11;100542.34;4969483;28;88047;-62
2021/04/26 14:27:16;;;;;;;4.30;1.30;;;20.20;25.90;;;15.30;28.98;100538.09;4979049;28;85830;-62
2021/04/26 14:30:28;;;;;;;2.42;0.98;;;20.40;25.60;;;14.97;30.71;100534.81;4955707;28;96341;-62
2021/04/26 14:33:42;;;;;;;3.92;1.23;;;20.40;26.30;;;14.87;32.69;100536.09;4969824;28;92786;-61
2021/04/26 14:37:21;;;;;;;1.75;0.82;;;20.40;26.40;;;14.36;31.92;100531.16;4960017;28;98263;-62
2021/04/26 14:44:15;;;;;;;2.65;0.98;;;19.80;26.30;;;14.46;34.17;100533.69;4927151;28;97891;-62